createdAt,value
2022-11-26T00:03:14.091Z,5.95
2022-11-26T00:08:18.260Z,5.89
2022-11-26T00:13:22.448Z,6.02
2022-11-26T00:18:26.801Z,6.16
2022-11-26T00:23:28.847Z,6.14
2022-11-26T00:28:33.010Z,6.00
2022-11-26T00:33:37.158Z,5.90
2022-11-26T00:38:41.360Z,5.70
2022-11-26T00:43:45.520Z,5.47
2022-11-26T00:48:49.638Z,5.43
2022-11-26T00:53:53.835Z,5.23
2022-11-26T00:58:58.010Z,5.19
2022-11-26T01:04:02.145Z,5.29
2022-11-26T01:09:06.295Z,5.32
2022-11-26T01:14:10.487Z,5.39
2022-11-26T01:19:14.608Z,5.42
2022-11-26T01:24:18.806Z,5.62
2022-11-26T01:29:22.945Z,5.69
2022-11-26T01:34:27.235Z,5.84
2022-11-26T01:39:31.292Z,5.93
2022-11-26T01:44:35.714Z,6.01
2022-11-26T01:49:39.593Z,5.86
2022-11-26T01:54:43.793Z,5.90
2022-11-26T01:59:47.946Z,5.90
2022-11-26T02:04:52.104Z,5.86
2022-11-26T02:09:54.382Z,5.76
2022-11-26T02:14:58.531Z,5.71
2022-11-26T02:20:02.682Z,5.53
2022-11-26T02:25:06.882Z,5.42
2022-11-26T02:30:11.030Z,5.50
2022-11-26T02:35:15.173Z,5.55
2022-11-26T02:40:19.337Z,5.54
2022-11-26T02:45:23.586Z,5.57
2022-11-26T02:50:27.687Z,5.62
2022-11-26T02:55:31.848Z,5.62
2022-11-26T03:00:35.983Z,5.64
2022-11-26T03:05:40.165Z,5.55
2022-11-26T03:10:44.403Z,5.44
2022-11-26T03:15:48.493Z,5.20
2022-11-26T03:20:52.794Z,5.11
2022-11-26T03:25:56.819Z,5.09
2022-11-26T03:31:01.167Z,5.17
2022-11-26T03:36:05.146Z,5.00
2022-11-26T03:41:09.305Z,4.78
2022-11-26T03:46:13.501Z,4.71
2022-11-26T03:51:17.617Z,4.73
2022-11-26T03:56:19.927Z,4.77
2022-11-26T04:01:24.140Z,4.90
2022-11-26T04:06:26.371Z,4.95
2022-11-26T04:11:30.506Z,4.95
2022-11-26T04:16:32.855Z,5.04
2022-11-26T04:21:36.961Z,5.06
2022-11-26T04:26:39.191Z,5.09
2022-11-26T04:31:43.494Z,5.16
2022-11-26T04:36:47.532Z,5.21
2022-11-26T04:41:51.698Z,5.27
2022-11-26T04:46:55.858Z,5.25
2022-11-26T04:52:00.080Z,5.15
2022-11-26T04:57:04.214Z,5.11
2022-11-26T05:02:08.361Z,5.07
2022-11-26T05:07:12.585Z,5.04
2022-11-26T05:12:16.712Z,5.11
2022-11-26T05:17:20.921Z,5.16
2022-11-26T05:22:25.049Z,5.27
2022-11-26T05:27:29.210Z,5.37
2022-11-26T05:32:33.334Z,5.37
2022-11-26T05:37:37.492Z,5.35
2022-11-26T05:47:45.832Z,5.32
2022-11-26T05:52:50.122Z,5.27
2022-11-26T05:57:54.170Z,5.37
2022-11-26T06:02:58.460Z,5.37
2022-11-26T06:08:02.532Z,5.35
2022-11-26T06:13:06.651Z,5.25
2022-11-26T06:23:13.125Z,5.10
2022-11-26T06:28:15.370Z,5.02
2022-11-26T06:33:19.511Z,5.03
2022-11-26T06:38:23.713Z,4.94
2022-11-26T06:43:27.824Z,4.92
2022-11-26T06:48:31.997Z,4.80
2022-11-26T06:53:36.173Z,4.56
2022-11-26T06:58:40.351Z,4.30
2022-11-26T07:03:44.510Z,4.11
2022-11-26T07:08:48.674Z,3.90
2022-11-26T07:13:52.843Z,3.86
2022-11-26T07:19:02.407Z,3.83
2022-11-26T07:24:01.156Z,3.86
2022-11-26T07:29:05.348Z,3.90
2022-11-26T07:34:09.495Z,4.08
2022-11-26T07:39:13.652Z,3.99
2022-11-26T07:44:17.814Z,4.00
2022-11-26T07:49:21.964Z,3.96
2022-11-26T07:54:26.120Z,4.03
2022-11-26T07:59:30.473Z,4.24
2022-11-26T08:04:34.567Z,4.39
2022-11-26T08:09:36.737Z,4.36
2022-11-26T08:14:39.234Z,4.35
2022-11-26T08:19:43.193Z,4.46
2022-11-26T08:24:45.467Z,4.49
2022-11-26T08:29:49.639Z,4.57
2022-11-26T08:34:53.788Z,4.60
2022-11-26T08:39:57.951Z,4.63
2022-11-26T08:45:02.175Z,4.67
2022-11-26T08:50:06.258Z,4.78
2022-11-26T08:55:10.449Z,4.84
2022-11-26T09:00:14.592Z,4.96
2022-11-26T09:05:18.759Z,5.21
2022-11-26T09:10:22.941Z,5.28
2022-11-26T09:15:27.098Z,5.45
2022-11-26T09:20:31.249Z,5.64
2022-11-26T09:25:35.413Z,5.75
2022-11-26T09:30:39.573Z,5.92
2022-11-26T09:35:43.758Z,6.04
2022-11-26T09:40:47.907Z,6.17
2022-11-26T09:45:52.113Z,6.26
2022-11-26T09:50:56.268Z,6.35
2022-11-26T09:56:00.395Z,6.46
2022-11-26T10:01:04.609Z,6.57
2022-11-26T10:06:08.731Z,6.75
2022-11-26T10:11:11.004Z,6.93
2022-11-26T10:16:15.208Z,7.15
2022-11-26T10:21:26.998Z,7.32
2022-11-26T10:26:21.592Z,7.48
2022-11-26T10:31:23.915Z,7.67
2022-11-26T10:36:28.026Z,7.81
2022-11-26T10:41:32.183Z,7.97
2022-11-26T10:46:36.411Z,8.09
2022-11-26T10:51:40.534Z,8.20
2022-11-26T10:56:44.690Z,8.30
2022-11-26T11:01:52.930Z,8.40
2022-11-26T11:06:53.014Z,8.52
2022-11-26T11:11:57.173Z,8.67
2022-11-26T11:17:01.337Z,8.90
2022-11-26T11:22:05.479Z,9.06
2022-11-26T11:27:09.636Z,9.17
2022-11-26T11:32:13.817Z,9.33
2022-11-26T11:37:17.971Z,9.43
2022-11-26T11:42:22.208Z,9.48
2022-11-26T11:47:26.301Z,9.60
2022-11-26T11:52:30.468Z,9.71
2022-11-26T11:57:34.630Z,9.80
2022-11-26T12:02:38.784Z,9.87
2022-11-26T12:07:42.993Z,9.88
2022-11-26T12:12:47.102Z,9.94
2022-11-26T12:17:49.368Z,9.98
2022-11-26T12:22:53.543Z,9.98
2022-11-26T12:27:55.819Z,9.98
2022-11-26T12:32:59.948Z,9.99
2022-11-26T12:38:04.127Z,10.02
2022-11-26T12:43:08.315Z,10.06
2022-11-26T12:48:12.466Z,10.03
2022-11-26T12:53:16.617Z,10.04
2022-11-26T12:58:20.742Z,10.03
2022-11-26T13:03:24.905Z,9.98
2022-11-26T13:08:29.087Z,9.95
2022-11-26T13:13:33.243Z,9.94
2022-11-26T13:18:37.419Z,9.92
2022-11-26T13:23:41.584Z,9.89
2022-11-26T13:28:45.760Z,9.85
2022-11-26T13:33:49.922Z,9.81
2022-11-26T13:38:54.092Z,9.76
2022-11-26T13:43:58.202Z,9.71
2022-11-26T13:49:02.408Z,9.69
2022-11-26T13:54:06.546Z,9.72
2022-11-26T13:59:10.683Z,9.70
2022-11-26T14:04:14.841Z,9.69
2022-11-26T14:09:19.045Z,9.66
2022-11-26T14:14:21.304Z,9.64
2022-11-26T14:19:25.444Z,9.64
2022-11-26T14:24:27.740Z,9.65
2022-11-26T14:29:31.911Z,9.68
2022-11-26T14:34:36.055Z,9.73
2022-11-26T14:39:40.218Z,9.72
2022-11-26T14:44:44.374Z,9.60
2022-11-26T14:49:48.578Z,9.52
2022-11-26T14:54:52.715Z,9.49
2022-11-26T14:59:56.872Z,9.34
2022-11-26T15:05:01.061Z,9.19
2022-11-26T15:10:05.210Z,9.09
2022-11-26T15:15:09.377Z,9.00
2022-11-26T15:20:13.516Z,8.90
2022-11-26T15:25:17.693Z,8.75
2022-11-26T15:30:21.843Z,8.61
2022-11-26T15:35:26.005Z,8.49
2022-11-26T15:40:30.127Z,8.35
2022-11-26T15:45:34.519Z,8.16
2022-11-26T15:50:38.459Z,8.00
2022-11-26T15:55:42.647Z,7.85
2022-11-26T16:00:46.802Z,7.80
2022-11-26T16:05:52.870Z,7.75
2022-11-26T16:10:53.249Z,7.72
2022-11-26T16:15:57.411Z,7.64
2022-11-26T16:21:01.545Z,7.60
2022-11-26T16:26:05.786Z,7.55
2022-11-26T16:31:09.954Z,7.56
2022-11-26T16:41:18.227Z,7.47
2022-11-26T16:46:22.425Z,7.40
2022-11-26T16:51:26.531Z,7.34
2022-11-26T16:56:30.670Z,7.30
2022-11-26T17:01:34.839Z,7.22
2022-11-26T17:06:39.013Z,7.14
2022-11-26T17:11:43.216Z,7.11
2022-11-26T17:16:47.380Z,7.04
2022-11-26T17:21:51.482Z,7.00
2022-11-26T17:26:55.674Z,6.92
2022-11-26T17:31:59.833Z,6.91
2022-11-26T17:37:03.973Z,6.86
2022-11-26T17:42:08.169Z,6.75
2022-11-26T17:47:17.447Z,6.68
2022-11-26T17:52:16.452Z,6.65
2022-11-26T17:57:20.627Z,6.60
2022-11-26T18:02:23.011Z,6.51
2022-11-26T18:07:27.144Z,6.41
2022-11-26T18:12:29.325Z,6.43
2022-11-26T18:17:33.517Z,6.47
2022-11-26T18:22:37.666Z,6.46
2022-11-26T18:27:39.957Z,6.46
2022-11-26T18:32:44.075Z,6.40
2022-11-26T18:37:48.287Z,6.33
2022-11-26T18:42:52.403Z,6.27
2022-11-26T18:47:56.625Z,6.23
2022-11-26T18:53:00.755Z,6.18
2022-11-26T18:58:08.037Z,6.09
2022-11-26T19:03:09.090Z,6.03
2022-11-26T19:08:13.271Z,5.93
2022-11-26T19:13:17.403Z,5.90
2022-11-26T19:18:21.567Z,5.86
2022-11-26T19:23:25.749Z,5.87
2022-11-26T19:28:29.901Z,5.80
2022-11-26T19:33:34.061Z,5.82
2022-11-26T19:38:38.217Z,5.74
2022-11-26T19:43:42.426Z,5.66
2022-11-26T19:48:46.564Z,5.54
2022-11-26T19:53:50.704Z,5.50
2022-11-26T20:03:59.015Z,5.41
2022-11-26T20:09:03.215Z,5.33
2022-11-26T20:14:07.379Z,5.37
2022-11-26T20:19:09.706Z,5.42
2022-11-26T20:24:13.803Z,5.37
2022-11-26T20:29:16.163Z,5.31
2022-11-26T20:34:20.256Z,5.27
2022-11-26T20:39:24.406Z,5.17
2022-11-26T20:44:28.557Z,5.18
2022-11-26T20:49:36.002Z,5.14
2022-11-26T20:54:36.876Z,5.13
2022-11-26T20:59:41.348Z,5.13
2022-11-26T21:04:45.212Z,5.13
2022-11-26T21:09:49.400Z,5.11
2022-11-26T21:14:53.538Z,5.10
2022-11-26T21:19:57.700Z,5.18
2022-11-26T21:25:01.869Z,5.22
2022-11-26T21:30:06.045Z,5.22
2022-11-26T21:35:10.212Z,5.14
2022-11-26T21:40:14.346Z,5.15
2022-11-26T21:45:18.515Z,5.25
2022-11-26T21:50:22.687Z,5.30
2022-11-26T21:55:26.872Z,5.28
2022-11-26T22:00:30.994Z,5.27
2022-11-26T22:05:35.203Z,5.27
2022-11-26T22:10:39.331Z,5.26
2022-11-26T22:15:41.646Z,5.26
2022-11-26T22:20:45.775Z,5.29
2022-11-26T22:25:49.934Z,5.35
2022-11-26T22:30:52.278Z,5.37
2022-11-26T22:35:56.383Z,5.36
2022-11-26T22:41:00.517Z,5.33
2022-11-26T22:46:04.769Z,5.35
2022-11-26T22:51:08.852Z,5.32
2022-11-26T22:56:13.044Z,5.22
2022-11-26T23:01:17.207Z,5.26
2022-11-26T23:06:21.328Z,5.42
2022-11-26T23:11:25.522Z,5.33
2022-11-26T23:16:29.789Z,5.38
2022-11-26T23:21:33.855Z,5.37
2022-11-26T23:26:37.999Z,5.33
2022-11-26T23:31:42.296Z,5.20
2022-11-26T23:36:46.358Z,5.12
2022-11-26T23:41:50.539Z,5.03
2022-11-26T23:46:54.662Z,5.00
2022-11-26T23:51:58.831Z,4.91
2022-11-26T23:57:02.987Z,4.75
